createdAt,value
2022-10-24T00:01:48.112Z,2.20
2022-10-24T00:04:19.897Z,1.60
2022-10-24T00:06:47.996Z,1.70
2022-10-24T00:09:16.100Z,2.00
2022-10-24T00:11:44.319Z,2.07
2022-10-24T00:14:12.656Z,1.87
2022-10-24T00:16:43.076Z,2.00
2022-10-24T00:19:11.190Z,2.47
2022-10-24T00:21:40.696Z,2.43
2022-10-24T00:24:11.416Z,2.70
2022-10-24T00:26:39.698Z,2.03
2022-10-24T00:29:07.928Z,2.30
2022-10-24T00:31:38.392Z,2.63
2022-10-24T00:34:06.917Z,2.90
2022-10-24T00:36:37.375Z,2.20
2022-10-24T00:39:06.826Z,2.37
2022-10-24T00:41:37.465Z,2.53
2022-10-24T00:44:16.525Z,2.87
2022-10-24T00:46:47.763Z,2.60
2022-10-24T00:49:19.044Z,2.70
2022-10-24T00:51:53.755Z,2.47
2022-10-24T00:54:25.615Z,2.57
2022-10-24T00:57:03.880Z,3.17
2022-10-24T00:59:32.819Z,2.67
2022-10-24T01:02:01.049Z,2.60
2022-10-24T01:04:32.332Z,3.00
2022-10-24T01:07:24.506Z,2.63
2022-10-24T01:10:10.938Z,2.57
2022-10-24T01:12:49.545Z,3.43
2022-10-24T01:15:24.406Z,2.60
2022-10-24T01:18:00.084Z,2.97
2022-10-24T01:20:48.781Z,2.80
2022-10-24T01:23:47.828Z,2.80
2022-10-24T01:26:37.526Z,2.70
2022-10-24T01:29:15.631Z,2.63
2022-10-24T01:31:51.914Z,3.00
2022-10-24T01:34:26.279Z,3.00
2022-10-24T01:37:02.580Z,2.90
2022-10-24T01:39:37.068Z,2.97
2022-10-24T01:42:08.600Z,2.13
2022-10-24T01:44:43.544Z,2.67
2022-10-24T01:47:18.118Z,2.50
2022-10-24T01:49:50.536Z,2.33
2022-10-24T01:52:19.270Z,3.07
2022-10-24T01:54:48.935Z,2.83
2022-10-24T01:57:17.418Z,3.33
2022-10-24T01:59:47.888Z,2.37
2022-10-24T02:02:24.441Z,3.20
2022-10-24T02:04:57.202Z,2.97
2022-10-24T02:07:27.861Z,2.53
2022-10-24T02:10:02.660Z,2.73
2022-10-24T02:12:33.441Z,2.43
2022-10-24T02:15:05.824Z,2.50
2022-10-24T02:17:37.756Z,2.37
2022-10-24T02:20:09.107Z,2.60
2022-10-24T02:22:48.817Z,2.77
2022-10-24T02:25:22.627Z,2.57
2022-10-24T02:27:56.348Z,2.73
2022-10-24T02:30:26.263Z,2.70
2022-10-24T02:32:58.664Z,3.50
2022-10-24T02:35:29.608Z,2.80
2022-10-24T02:38:04.239Z,2.63
2022-10-24T02:40:33.964Z,2.90
2022-10-24T02:43:05.395Z,2.70
2022-10-24T02:45:37.626Z,2.43
2022-10-24T02:48:12.424Z,2.43
2022-10-24T02:50:42.916Z,2.60
2022-10-24T02:53:15.353Z,3.63
2022-10-24T02:55:43.589Z,2.80
2022-10-24T02:58:12.556Z,3.00
2022-10-24T03:00:40.694Z,3.10
2022-10-24T03:03:12.765Z,2.50
2022-10-24T03:05:40.863Z,2.87
2022-10-24T03:08:11.007Z,2.60
2022-10-24T03:10:43.064Z,2.63
2022-10-24T03:13:11.103Z,2.93
2022-10-24T03:15:39.350Z,2.77
2022-10-24T03:18:07.484Z,2.80
2022-10-24T03:20:38.993Z,2.43
2022-10-24T03:23:07.632Z,2.63
2022-10-24T03:25:35.837Z,2.37
2022-10-24T03:28:06.616Z,3.00
2022-10-24T03:30:34.799Z,2.30
2022-10-24T03:33:02.874Z,2.13
2022-10-24T03:35:31.031Z,2.40
2022-10-24T03:38:02.804Z,2.50
2022-10-24T03:40:33.016Z,2.60
2022-10-24T03:43:01.173Z,2.60
2022-10-24T03:45:29.499Z,2.50
2022-10-24T03:47:57.632Z,3.20
2022-10-24T03:50:25.731Z,2.70
2022-10-24T03:52:53.789Z,2.40
2022-10-24T03:55:23.443Z,2.33
2022-10-24T03:57:51.642Z,2.57
2022-10-24T04:00:22.095Z,3.33
2022-10-24T04:02:51.478Z,2.33
2022-10-24T04:05:19.699Z,2.47
2022-10-24T04:07:47.986Z,2.50
2022-10-24T04:10:16.161Z,2.93
2022-10-24T04:12:47.742Z,2.63
2022-10-24T04:15:16.052Z,2.50
2022-10-24T04:17:44.445Z,2.47
2022-10-24T04:20:13.019Z,2.63
2022-10-24T04:22:43.396Z,2.43
2022-10-24T04:25:11.730Z,2.57
2022-10-24T04:27:41.951Z,3.03
2022-10-24T04:30:16.712Z,2.93
2022-10-24T04:32:47.574Z,2.30
2022-10-24T04:35:15.978Z,2.33
2022-10-24T04:37:44.121Z,2.00
2022-10-24T04:40:12.951Z,2.70
2022-10-24T04:42:43.630Z,1.90
2022-10-24T04:45:13.623Z,2.70
2022-10-24T04:47:41.927Z,2.77
2022-10-24T04:50:10.607Z,2.53
2022-10-24T04:52:38.702Z,2.27
2022-10-24T04:55:09.771Z,2.47
2022-10-24T04:57:37.892Z,2.40
2022-10-24T05:00:07.370Z,2.50
2022-10-24T05:02:38.966Z,2.40
2022-10-24T05:05:10.148Z,2.03
2022-10-24T05:07:38.315Z,2.60
2022-10-24T05:10:07.038Z,2.67
2022-10-24T05:12:37.936Z,2.60
2022-10-24T05:15:07.433Z,2.33
2022-10-24T05:17:35.846Z,2.13
2022-10-24T05:20:07.255Z,2.40
2022-10-24T05:22:35.411Z,2.20
2022-10-24T05:25:06.965Z,2.43
2022-10-24T05:27:35.154Z,2.40
2022-10-24T05:30:03.241Z,1.90
2022-10-24T05:32:35.995Z,3.00
2022-10-24T05:35:11.232Z,2.23
2022-10-24T05:37:42.380Z,2.23
2022-10-24T05:40:14.026Z,2.03
2022-10-24T05:42:42.367Z,2.00
2022-10-24T05:45:12.162Z,1.80
2022-10-24T05:47:40.251Z,1.80
2022-10-24T05:50:11.171Z,2.00
2022-10-24T05:52:46.123Z,2.73
2022-10-24T05:55:17.889Z,1.90
2022-10-24T05:57:46.985Z,3.07
2022-10-24T06:00:18.079Z,2.53
2022-10-24T06:05:21.619Z,1.53
2022-10-24T06:07:49.775Z,1.77
2022-10-24T06:10:17.999Z,2.27
2022-10-24T06:12:46.312Z,1.70
2022-10-24T06:15:16.734Z,2.03
2022-10-24T06:17:47.258Z,1.90
2022-10-24T06:20:15.410Z,1.83
2022-10-24T06:22:46.360Z,2.00
2022-10-24T06:25:15.421Z,2.17
2022-10-24T06:27:43.534Z,1.80
2022-10-24T06:30:12.376Z,1.90
2022-10-24T06:32:44.571Z,1.70
2022-10-24T06:35:15.944Z,2.03
2022-10-24T06:37:48.541Z,2.50
2022-10-24T06:40:17.204Z,1.80
2022-10-24T06:42:46.159Z,1.77
2022-10-24T06:45:14.680Z,1.67
2022-10-24T06:47:45.361Z,2.33
2022-10-24T06:50:15.924Z,2.00
2022-10-24T06:52:44.048Z,1.67
2022-10-24T06:55:13.506Z,1.70
2022-10-24T06:57:41.763Z,1.50
2022-10-24T07:00:11.577Z,1.60
2022-10-24T07:02:39.849Z,1.53
2022-10-24T07:05:12.681Z,1.50
2022-10-24T07:07:43.079Z,1.73
2022-10-24T07:10:15.937Z,1.40
2022-10-24T07:12:46.889Z,1.63
2022-10-24T07:15:17.745Z,1.77
2022-10-24T07:17:46.748Z,1.70
2022-10-24T07:20:16.166Z,1.47
2022-10-24T07:22:47.120Z,1.80
2022-10-24T07:25:17.388Z,1.53
2022-10-24T07:27:45.509Z,1.50
2022-10-24T07:30:19.001Z,1.80
2022-10-24T07:32:49.735Z,1.60
2022-10-24T07:35:20.039Z,1.30
2022-10-24T07:37:48.600Z,1.60
2022-10-24T07:40:18.255Z,1.73
2022-10-24T07:42:49.200Z,1.80
2022-10-24T07:45:17.372Z,2.00
2022-10-24T07:47:45.784Z,2.67
2022-10-24T07:50:15.635Z,2.00
2022-10-24T07:52:43.811Z,2.00
2022-10-24T07:55:13.998Z,1.90
2022-10-24T07:57:43.916Z,2.53
2022-10-24T08:00:13.321Z,2.93
2022-10-24T08:02:41.777Z,2.10
2022-10-24T08:05:11.983Z,1.70
2022-10-24T08:07:42.614Z,1.87
2022-10-24T08:10:13.749Z,1.30
2022-10-24T08:12:45.465Z,1.47
2022-10-24T08:15:13.818Z,2.00
2022-10-24T08:17:41.996Z,1.87
2022-10-24T08:20:13.309Z,1.90
2022-10-24T08:22:41.861Z,1.47
2022-10-24T08:25:11.304Z,1.60
2022-10-24T08:27:39.440Z,1.60
2022-10-24T08:30:10.741Z,1.43
2022-10-24T08:32:39.307Z,1.47
2022-10-24T08:35:08.501Z,1.90
2022-10-24T08:40:16.413Z,1.57
2022-10-24T08:42:45.592Z,1.10
2022-10-24T08:45:23.545Z,1.50
2022-10-24T08:47:57.497Z,1.90
2022-10-24T08:50:28.234Z,1.60
2022-10-24T08:53:02.798Z,1.77
2022-10-24T08:55:54.909Z,1.70
2022-10-24T08:58:27.227Z,1.77
2022-10-24T09:00:58.643Z,1.57
2022-10-24T09:03:58.140Z,1.40
2022-10-24T09:06:23.567Z,1.47
2022-10-24T09:08:55.935Z,1.40
2022-10-24T09:11:31.477Z,1.63
2022-10-24T09:14:04.086Z,2.57
2022-10-24T09:16:36.891Z,1.80
2022-10-24T09:19:07.545Z,1.87
2022-10-24T09:21:38.487Z,1.53
2022-10-24T09:24:07.869Z,1.60
2022-10-24T09:26:39.309Z,1.37
2022-10-24T09:29:07.403Z,1.93
2022-10-24T09:31:36.937Z,2.13
2022-10-24T09:34:07.591Z,1.53
2022-10-24T09:36:35.742Z,1.57
2022-10-24T09:39:25.752Z,1.57
2022-10-24T09:41:54.454Z,2.30
2022-10-24T09:44:35.324Z,1.87
2022-10-24T09:47:21.010Z,2.87
2022-10-24T09:49:49.779Z,3.47
2022-10-24T09:52:21.020Z,5.97
2022-10-24T09:55:13.028Z,2.60
2022-10-24T09:57:42.093Z,2.23
2022-10-24T10:00:24.070Z,2.00
2022-10-24T10:03:02.957Z,1.70
2022-10-24T10:05:44.444Z,1.53
2022-10-24T10:08:17.989Z,1.63
2022-10-24T10:10:57.643Z,1.90
2022-10-24T10:13:29.301Z,1.37
2022-10-24T10:16:01.844Z,1.77
2022-10-24T10:18:46.352Z,1.93
2022-10-24T10:21:16.870Z,2.00
2022-10-24T10:23:46.517Z,1.53
2022-10-24T10:26:22.052Z,2.27
2022-10-24T10:29:01.650Z,1.10
2022-10-24T10:31:43.639Z,1.40
2022-10-24T10:34:29.750Z,1.80
2022-10-24T10:37:19.184Z,1.70
2022-10-24T10:40:16.577Z,2.40
2022-10-24T10:42:58.634Z,2.00
2022-10-24T10:45:36.602Z,1.80
2022-10-24T10:48:23.042Z,1.87
2022-10-24T10:51:05.806Z,1.53
2022-10-24T10:53:43.767Z,1.60
2022-10-24T10:56:25.400Z,1.97
2022-10-24T10:59:05.571Z,1.40
2022-10-24T11:01:42.933Z,1.73
2022-10-24T11:04:20.722Z,1.53
2022-10-24T11:06:54.284Z,2.00
2022-10-24T11:09:30.771Z,1.87
2022-10-24T11:12:10.654Z,1.50
2022-10-24T11:14:44.316Z,1.50
2022-10-24T11:17:19.293Z,1.67
2022-10-24T11:19:56.559Z,1.50
2022-10-24T11:22:29.555Z,2.33
2022-10-24T11:25:02.653Z,1.80
2022-10-24T11:27:39.509Z,1.63
2022-10-24T11:30:16.484Z,1.53
2022-10-24T11:32:50.982Z,1.77
2022-10-24T11:35:26.964Z,1.50
2022-10-24T11:38:01.094Z,1.60
2022-10-24T11:40:31.664Z,1.92
2022-10-24T11:43:11.768Z,1.90
2022-10-24T11:45:45.035Z,2.00
2022-10-24T11:48:18.096Z,1.53
2022-10-24T11:50:53.992Z,1.90
2022-10-24T11:53:50.416Z,1.40
2022-10-24T11:56:30.899Z,2.27
2022-10-24T11:59:03.488Z,2.10
2022-10-24T12:01:51.906Z,2.20
2022-10-24T12:04:58.505Z,1.60
2022-10-24T12:08:03.960Z,1.90
2022-10-24T12:11:09.070Z,1.53
2022-10-24T12:16:49.173Z,1.60
2022-10-24T12:19:20.426Z,2.03
2022-10-24T12:21:53.168Z,1.43
2022-10-24T12:24:30.189Z,1.77
2022-10-24T12:27:02.985Z,1.73
2022-10-24T12:29:35.379Z,2.07
2022-10-24T12:32:26.067Z,2.00
2022-10-24T12:35:28.988Z,1.90
2022-10-24T12:37:52.327Z,1.90
2022-10-24T12:40:48.764Z,1.80
2022-10-24T12:43:32.866Z,2.23
2022-10-24T12:46:29.648Z,1.83
2022-10-24T12:49:23.188Z,1.53
2022-10-24T12:51:53.824Z,1.80
2022-10-24T12:54:40.336Z,1.80
2022-10-24T12:57:24.837Z,2.07
2022-10-24T12:59:58.624Z,1.80
2022-10-24T13:02:41.389Z,2.57
2022-10-24T13:05:32.080Z,2.27
2022-10-24T13:08:14.999Z,2.17
2022-10-24T13:10:58.259Z,1.73
2022-10-24T13:13:52.584Z,2.13
2022-10-24T13:16:36.899Z,2.07
2022-10-24T13:19:13.435Z,2.57
2022-10-24T13:21:50.370Z,2.20
2022-10-24T13:24:37.128Z,2.00
2022-10-24T13:27:31.029Z,2.17
2022-10-24T13:30:31.526Z,2.53
2022-10-24T13:33:37.947Z,2.40
2022-10-24T13:36:17.962Z,2.63
2022-10-24T13:38:50.609Z,2.17
2022-10-24T13:41:27.903Z,2.57
2022-10-24T13:44:01.394Z,2.63
2022-10-24T13:46:36.920Z,2.43
2022-10-24T13:49:07.415Z,2.17
2022-10-24T13:51:45.489Z,2.17
2022-10-24T13:54:21.098Z,2.47
2022-10-24T13:56:51.437Z,2.67
2022-10-24T13:59:33.465Z,2.67
2022-10-24T14:02:07.874Z,3.70
2022-10-24T14:04:36.961Z,2.47
2022-10-24T14:07:08.810Z,2.43
2022-10-24T14:09:42.005Z,1.90
2022-10-24T14:12:19.943Z,4.37
2022-10-24T14:14:51.080Z,2.30
2022-10-24T14:17:23.834Z,2.50
2022-10-24T14:19:57.175Z,3.43
2022-10-24T14:22:29.960Z,2.10
2022-10-24T14:24:58.312Z,2.57
2022-10-24T14:27:28.867Z,2.23
2022-10-24T14:30:02.905Z,1.97
2022-10-24T14:32:33.443Z,2.53
2022-10-24T14:35:04.033Z,2.57
2022-10-24T14:37:37.577Z,2.00
2022-10-24T14:40:07.482Z,3.03
2022-10-24T14:42:39.748Z,2.73
2022-10-24T14:45:22.014Z,2.30
2022-10-24T14:47:53.966Z,1.90
2022-10-24T14:50:35.526Z,2.20
2022-10-24T14:53:07.308Z,2.53
2022-10-24T14:55:35.434Z,2.90
2022-10-24T14:58:05.942Z,2.00
2022-10-24T15:00:39.333Z,2.13
2022-10-24T15:03:07.885Z,2.33
2022-10-24T15:05:37.345Z,2.40
2022-10-24T15:11:16.693Z,2.07
2022-10-24T15:14:05.554Z,2.27
2022-10-24T15:16:39.647Z,1.60
2022-10-24T15:19:12.961Z,1.80
2022-10-24T15:21:47.265Z,2.07
2022-10-24T15:24:22.851Z,1.70
2022-10-24T15:26:52.499Z,2.23
2022-10-24T15:29:23.142Z,1.93
2022-10-24T15:31:52.864Z,2.10
2022-10-24T15:34:24.881Z,2.30
2022-10-24T15:36:54.463Z,2.13
2022-10-24T15:39:24.804Z,2.20
2022-10-24T15:41:55.235Z,2.00
2022-10-24T15:44:31.448Z,1.87
2022-10-24T15:46:59.665Z,2.37
2022-10-24T15:49:31.441Z,1.83
2022-10-24T15:52:00.314Z,2.37
2022-10-24T15:54:29.307Z,2.47
2022-10-24T15:57:02.883Z,2.27
2022-10-24T15:59:33.685Z,2.00
2022-10-24T16:02:03.050Z,1.67
2022-10-24T16:04:34.136Z,2.20
2022-10-24T16:07:02.576Z,1.90
2022-10-24T16:09:31.293Z,1.77
2022-10-24T16:12:00.903Z,1.90
2022-10-24T16:14:30.386Z,1.77
2022-10-24T16:16:58.978Z,1.67
2022-10-24T16:19:27.424Z,1.53
2022-10-24T16:21:58.721Z,2.00
2022-10-24T16:24:27.870Z,2.30
2022-10-24T16:26:56.053Z,2.50
2022-10-24T16:29:27.713Z,2.00
2022-10-24T16:31:58.034Z,2.00
2022-10-24T16:34:26.192Z,2.20
2022-10-24T16:36:55.186Z,1.90
2022-10-24T16:39:24.121Z,1.73
2022-10-24T16:41:55.937Z,1.97
2022-10-24T16:44:28.473Z,2.07
2022-10-24T16:46:56.634Z,1.80
2022-10-24T16:49:26.880Z,1.80
2022-10-24T16:51:55.026Z,1.80
2022-10-24T16:54:23.269Z,1.80
2022-10-24T16:56:53.949Z,2.07
2022-10-24T16:59:26.359Z,1.53
2022-10-24T17:01:59.364Z,2.00
2022-10-24T17:04:32.830Z,1.87
2022-10-24T17:07:04.450Z,1.97
2022-10-24T17:09:32.780Z,1.33
2022-10-24T17:12:03.967Z,1.97
2022-10-24T17:14:36.340Z,1.93
2022-10-24T17:17:07.972Z,1.87
2022-10-24T17:19:41.154Z,1.60
2022-10-24T17:22:09.507Z,1.63
2022-10-24T17:24:37.887Z,1.50
2022-10-24T17:27:10.601Z,1.40
2022-10-24T17:29:38.937Z,1.43
2022-10-24T17:32:13.374Z,1.47
2022-10-24T17:34:42.779Z,1.80
2022-10-24T17:37:20.069Z,2.23
2022-10-24T17:39:51.257Z,1.57
2022-10-24T17:42:22.129Z,1.47
2022-10-24T17:44:50.646Z,1.77
2022-10-24T17:47:20.408Z,1.80
2022-10-24T17:49:50.873Z,2.13
2022-10-24T17:52:24.404Z,1.97
2022-10-24T17:54:54.598Z,1.60
2022-10-24T17:57:25.089Z,2.37
2022-10-24T17:59:55.396Z,1.87
2022-10-24T18:02:24.981Z,1.77
2022-10-24T18:04:55.395Z,1.90
2022-10-24T18:07:25.998Z,1.83
2022-10-24T18:10:00.425Z,1.87
2022-10-24T18:12:29.240Z,2.00
2022-10-24T18:14:57.649Z,1.83
2022-10-24T18:17:29.989Z,1.70
2022-10-24T18:19:59.157Z,1.57
2022-10-24T18:22:29.946Z,2.00
2022-10-24T18:25:00.663Z,2.90
2022-10-24T18:27:29.137Z,1.97
2022-10-24T18:29:59.663Z,2.40
2022-10-24T18:32:31.367Z,4.10
2022-10-24T18:34:59.525Z,2.43
2022-10-24T18:37:28.696Z,2.50
2022-10-24T18:39:57.407Z,3.17
2022-10-24T18:42:33.283Z,2.47
2022-10-24T18:45:02.064Z,2.37
2022-10-24T18:47:34.910Z,2.30
2022-10-24T18:50:03.446Z,2.00
2022-10-24T18:52:42.268Z,2.47
2022-10-24T18:55:17.963Z,1.80
2022-10-24T18:57:50.065Z,2.07
2022-10-24T19:00:20.762Z,1.67
2022-10-24T19:02:57.123Z,2.30
2022-10-24T19:05:32.202Z,1.90
2022-10-24T19:08:00.499Z,2.43
2022-10-24T19:10:29.662Z,1.87
2022-10-24T19:13:00.269Z,2.07
2022-10-24T19:15:31.189Z,2.00
2022-10-24T19:18:02.841Z,2.10
2022-10-24T19:20:35.698Z,1.87
2022-10-24T19:23:06.070Z,2.63
2022-10-24T19:25:34.674Z,2.07
2022-10-24T19:28:02.787Z,1.83
2022-10-24T19:30:31.053Z,2.00
2022-10-24T19:32:59.238Z,2.13
2022-10-24T19:35:28.736Z,2.20
2022-10-24T19:37:56.947Z,2.23
2022-10-24T19:40:25.135Z,1.93
2022-10-24T19:42:55.810Z,2.10
2022-10-24T19:45:25.183Z,2.27
2022-10-24T19:47:55.817Z,1.87
2022-10-24T19:50:28.396Z,2.43
2022-10-24T19:52:56.532Z,1.83
2022-10-24T19:55:24.649Z,2.03
2022-10-24T19:57:55.075Z,1.77
2022-10-24T20:00:23.145Z,1.67
2022-10-24T20:02:51.268Z,2.23
2022-10-24T20:05:19.395Z,2.07
2022-10-24T20:07:48.834Z,2.30
2022-10-24T20:10:17.147Z,2.40
2022-10-24T20:12:45.642Z,2.77
2022-10-24T20:15:16.698Z,2.43
2022-10-24T20:17:44.838Z,2.23
2022-10-24T20:20:13.116Z,2.57
2022-10-24T20:22:41.509Z,1.87
2022-10-24T20:25:10.999Z,2.13
2022-10-24T20:27:39.503Z,2.87
2022-10-24T20:30:11.228Z,2.67
2022-10-24T20:32:41.422Z,2.77
2022-10-24T20:35:10.037Z,3.10
2022-10-24T20:37:40.246Z,3.00
2022-10-24T20:40:12.862Z,2.87
2022-10-24T20:42:41.604Z,2.97
2022-10-24T20:45:10.481Z,2.87
2022-10-24T20:47:38.581Z,2.87
2022-10-24T20:50:09.590Z,2.80
2022-10-24T20:52:37.704Z,2.40
2022-10-24T20:55:14.757Z,3.63
2022-10-24T20:57:54.860Z,3.43
2022-10-24T21:00:25.116Z,3.53
2022-10-24T21:02:53.246Z,3.30
2022-10-24T21:05:21.751Z,3.20
2022-10-24T21:07:52.807Z,3.00
2022-10-24T21:10:24.079Z,3.07
2022-10-24T21:12:55.873Z,3.47
2022-10-24T21:15:24.012Z,3.00
2022-10-24T21:17:52.798Z,3.73
2022-10-24T21:20:20.994Z,3.47
2022-10-24T21:22:49.115Z,3.80
2022-10-24T21:25:17.311Z,3.40
2022-10-24T21:27:45.628Z,3.97
2022-10-24T21:30:16.504Z,3.90
2022-10-24T21:32:46.628Z,4.13
2022-10-24T21:35:15.025Z,3.40
2022-10-24T21:37:43.316Z,3.93
2022-10-24T21:40:12.464Z,3.93
2022-10-24T21:42:40.597Z,4.33
2022-10-24T21:45:09.096Z,4.30
2022-10-24T21:47:38.593Z,3.83
2022-10-24T21:50:09.169Z,3.13
2022-10-24T21:52:37.264Z,3.73
2022-10-24T21:55:05.780Z,3.73
2022-10-24T21:57:36.012Z,3.93
2022-10-24T22:00:07.732Z,3.90
2022-10-24T22:02:35.921Z,3.30
2022-10-24T22:05:08.223Z,3.07
2022-10-24T22:07:36.322Z,3.00
2022-10-24T22:10:04.648Z,3.20
2022-10-24T22:12:35.054Z,3.63
2022-10-24T22:15:03.266Z,3.80
2022-10-24T22:17:33.862Z,3.70
2022-10-24T22:20:01.961Z,2.70
2022-10-24T22:22:31.384Z,3.30
2022-10-24T22:25:01.797Z,3.00
2022-10-24T22:27:32.268Z,3.87
2022-10-24T22:30:02.424Z,3.20
2022-10-24T22:32:30.825Z,3.67
2022-10-24T22:34:59.638Z,3.20
2022-10-24T22:37:32.672Z,3.50
2022-10-24T22:40:01.194Z,3.60
2022-10-24T22:42:29.730Z,2.70
2022-10-24T22:44:58.390Z,3.33
2022-10-24T22:47:45.997Z,2.93
2022-10-24T22:50:23.604Z,2.33
2022-10-24T22:52:53.625Z,2.87
2022-10-24T22:55:32.650Z,2.43
2022-10-24T22:58:01.410Z,2.40
2022-10-24T23:00:32.407Z,2.50
2022-10-24T23:03:09.392Z,2.30
2022-10-24T23:05:43.446Z,1.90
2022-10-24T23:08:26.896Z,2.40
2022-10-24T23:10:55.524Z,2.30
2022-10-24T23:13:24.153Z,1.40
2022-10-24T23:15:55.325Z,1.83
2022-10-24T23:18:23.940Z,1.93
2022-10-24T23:21:04.416Z,1.60
2022-10-24T23:23:36.721Z,1.77
2022-10-24T23:26:13.674Z,1.50
2022-10-24T23:28:50.178Z,1.70
2022-10-24T23:31:18.850Z,1.60
2022-10-24T23:33:49.773Z,1.73
2022-10-24T23:36:25.287Z,1.63
2022-10-24T23:38:58.181Z,1.90
2022-10-24T23:41:26.848Z,1.73
2022-10-24T23:43:55.568Z,2.10
2022-10-24T23:46:27.374Z,1.30
2022-10-24T23:49:16.180Z,2.03
2022-10-24T23:51:53.608Z,1.90
2022-10-24T23:54:30.851Z,2.50
2022-10-24T23:57:01.678Z,2.47
2022-10-24T23:59:31.884Z,1.97
